createdAt,value
2023-05-15T00:02:07.142Z,13.23
2023-05-15T00:04:35.544Z,13.13
2023-05-15T00:07:07.838Z,13.32
2023-05-15T00:09:37.342Z,14.00
2023-05-15T00:12:06.245Z,13.27
2023-05-15T00:14:35.122Z,13.90
2023-05-15T00:17:03.774Z,14.23
2023-05-15T00:19:32.073Z,14.45
2023-05-15T00:22:00.481Z,14.32
2023-05-15T00:24:32.928Z,15.18
2023-05-15T00:27:01.495Z,14.48
2023-05-15T00:29:30.051Z,13.98
2023-05-15T00:31:58.217Z,14.65
2023-05-15T00:34:26.718Z,15.35
2023-05-15T00:36:54.851Z,15.10
2023-05-15T00:39:22.923Z,14.48
2023-05-15T00:41:53.671Z,15.00
2023-05-15T00:44:22.674Z,13.98
2023-05-15T00:46:54.161Z,14.60
2023-05-15T00:49:24.162Z,14.77
2023-05-15T00:51:53.210Z,14.13
2023-05-15T00:54:21.399Z,14.25
2023-05-15T00:56:56.886Z,14.95
2023-05-15T00:59:27.398Z,14.73
2023-05-15T01:01:57.168Z,13.55
2023-05-15T01:04:25.583Z,14.23
2023-05-15T01:06:54.355Z,13.73
2023-05-15T01:09:26.314Z,13.65
2023-05-15T01:14:26.221Z,13.32
2023-05-15T01:16:55.057Z,13.55
2023-05-15T01:19:24.157Z,13.07
2023-05-15T01:22:36.204Z,13.80
2023-05-15T01:25:47.961Z,14.60
2023-05-15T01:28:21.857Z,14.43
2023-05-15T01:30:51.634Z,14.38
2023-05-15T01:33:24.296Z,14.15
2023-05-15T01:35:59.499Z,14.40
2023-05-15T01:38:35.249Z,14.38
2023-05-15T01:41:11.721Z,14.50
2023-05-15T01:43:45.541Z,14.85
2023-05-15T01:46:19.847Z,14.60
2023-05-15T01:48:50.904Z,15.15
2023-05-15T01:51:20.634Z,15.00
2023-05-15T01:53:50.319Z,14.45
2023-05-15T01:56:24.963Z,14.10
2023-05-15T01:58:56.481Z,14.15
2023-05-15T02:01:26.445Z,14.68
2023-05-15T02:03:56.396Z,13.80
2023-05-15T02:06:28.881Z,14.57
2023-05-15T02:08:58.921Z,14.80
2023-05-15T02:11:27.163Z,15.23
2023-05-15T02:13:59.638Z,15.48
2023-05-15T02:16:28.241Z,15.75
2023-05-15T02:18:57.026Z,16.00
2023-05-15T02:21:25.962Z,16.27
2023-05-15T02:23:54.630Z,16.30
2023-05-15T02:26:33.130Z,16.15
2023-05-15T02:29:17.099Z,15.98
2023-05-15T02:31:53.502Z,16.50
2023-05-15T02:34:31.076Z,16.90
2023-05-15T02:37:03.110Z,16.73
2023-05-15T02:39:34.620Z,15.57
2023-05-15T02:42:03.533Z,15.63
2023-05-15T02:44:37.159Z,15.43
2023-05-15T02:47:06.781Z,15.75
2023-05-15T02:49:35.102Z,15.80
2023-05-15T02:52:03.719Z,15.68
2023-05-15T02:54:31.944Z,15.70
2023-05-15T02:57:01.066Z,15.02
2023-05-15T02:59:29.714Z,16.13
2023-05-15T03:02:03.715Z,15.02
2023-05-15T03:04:32.137Z,15.07
2023-05-15T03:07:00.580Z,15.52
2023-05-15T03:09:28.795Z,15.18
2023-05-15T03:11:57.309Z,15.43
2023-05-15T03:14:25.835Z,16.00
2023-05-15T03:16:57.331Z,16.25
2023-05-15T03:19:27.384Z,15.77
2023-05-15T03:21:58.891Z,16.40
2023-05-15T03:24:27.452Z,15.48
2023-05-15T03:26:57.194Z,16.08
2023-05-15T03:29:25.611Z,15.60
2023-05-15T03:31:56.814Z,15.82
2023-05-15T03:34:27.471Z,16.33
2023-05-15T03:36:56.009Z,15.07
2023-05-15T03:39:25.231Z,16.13
2023-05-15T03:41:54.901Z,16.48
2023-05-15T03:44:24.278Z,15.27
2023-05-15T03:46:52.811Z,15.52
2023-05-15T03:49:21.213Z,15.43
2023-05-15T03:51:51.322Z,15.30
2023-05-15T03:54:19.814Z,15.98
2023-05-15T03:56:48.235Z,15.63
2023-05-15T03:59:16.769Z,15.32
2023-05-15T04:02:02.766Z,15.68
2023-05-15T04:04:32.580Z,15.73
2023-05-15T04:07:03.014Z,15.70
2023-05-15T04:09:31.170Z,15.65
2023-05-15T04:11:59.931Z,16.38
2023-05-15T04:14:28.440Z,16.10
2023-05-15T04:16:57.429Z,16.00
2023-05-15T04:19:25.999Z,16.90
2023-05-15T04:21:54.365Z,16.15
2023-05-15T04:24:27.357Z,16.02
2023-05-15T04:26:57.228Z,16.17
2023-05-15T04:29:28.584Z,17.50
2023-05-15T04:31:56.958Z,17.40
2023-05-15T04:34:25.303Z,17.50
2023-05-15T04:36:53.532Z,16.83
2023-05-15T04:39:24.224Z,16.75
2023-05-15T04:41:52.652Z,16.52
2023-05-15T04:44:21.028Z,16.67
2023-05-15T04:46:50.581Z,17.52
2023-05-15T04:49:18.729Z,17.23
2023-05-15T04:51:46.956Z,17.38
2023-05-15T04:54:15.110Z,16.95
2023-05-15T04:56:44.888Z,16.33
2023-05-15T04:59:13.468Z,16.75
2023-05-15T05:01:42.019Z,17.75
2023-05-15T05:04:10.297Z,17.42
2023-05-15T05:06:38.721Z,17.52
2023-05-15T05:09:08.226Z,17.88
2023-05-15T05:11:36.824Z,17.58
2023-05-15T05:14:07.934Z,17.42
2023-05-15T05:16:37.048Z,18.27
2023-05-15T05:19:08.085Z,18.40
2023-05-15T05:21:36.580Z,17.98
2023-05-15T05:24:05.335Z,18.23
2023-05-15T05:26:33.909Z,18.23
2023-05-15T05:29:02.504Z,19.00
2023-05-15T05:31:32.361Z,18.42
2023-05-15T05:34:00.781Z,19.50
2023-05-15T05:36:29.032Z,20.35
2023-05-15T05:38:57.612Z,20.13
2023-05-15T05:41:25.945Z,21.60
2023-05-15T05:43:54.397Z,21.40
2023-05-15T05:46:22.624Z,21.63
2023-05-15T05:48:53.041Z,22.83
2023-05-15T05:51:21.287Z,22.42
2023-05-15T05:53:49.913Z,22.38
2023-05-15T05:56:18.225Z,22.80
2023-05-15T05:58:46.792Z,22.77
2023-05-15T06:01:14.977Z,22.85
2023-05-15T06:03:44.773Z,22.88
2023-05-15T06:06:14.569Z,23.20
2023-05-15T06:08:43.124Z,23.70
2023-05-15T06:11:11.466Z,22.77
2023-05-15T06:13:41.617Z,22.77
2023-05-15T06:16:09.889Z,22.83
2023-05-15T06:18:38.633Z,22.55
2023-05-15T06:21:06.902Z,22.77
2023-05-15T06:23:38.659Z,22.48
2023-05-15T06:28:37.918Z,21.85
2023-05-15T06:31:06.527Z,21.38
2023-05-15T06:33:35.113Z,20.63
2023-05-15T06:36:03.912Z,19.38
2023-05-15T06:38:33.049Z,18.92
2023-05-15T06:41:03.363Z,18.98
2023-05-15T06:43:33.510Z,18.10
2023-05-15T06:46:02.141Z,16.88
2023-05-15T06:48:30.288Z,17.92
2023-05-15T06:50:58.607Z,18.02
2023-05-15T06:53:26.931Z,18.90
2023-05-15T06:55:55.068Z,18.08
2023-05-15T06:58:25.511Z,17.20
2023-05-15T07:00:54.888Z,15.50
2023-05-15T07:03:24.912Z,15.80
2023-05-15T07:05:53.480Z,15.63
2023-05-15T07:08:21.836Z,15.40
2023-05-15T07:10:50.533Z,15.32
2023-05-15T07:13:19.380Z,14.95
2023-05-15T07:15:49.099Z,14.55
2023-05-15T07:18:19.958Z,13.55
2023-05-15T07:20:48.206Z,14.18
2023-05-15T07:23:16.925Z,14.13
2023-05-15T07:25:46.097Z,14.23
2023-05-15T07:28:14.493Z,14.30
2023-05-15T07:30:42.828Z,12.63
2023-05-15T07:33:12.662Z,12.68
2023-05-15T07:35:41.493Z,12.90
2023-05-15T07:38:10.090Z,13.05
2023-05-15T07:40:38.662Z,12.82
2023-05-15T07:43:07.312Z,13.35
2023-05-15T07:45:36.050Z,12.60
2023-05-15T07:48:16.518Z,10.82
2023-05-15T07:50:46.163Z,12.02
2023-05-15T07:53:17.942Z,11.23
2023-05-15T07:58:14.547Z,11.23
2023-05-15T08:00:43.587Z,11.45
2023-05-15T08:03:12.231Z,9.73
2023-05-15T08:05:42.153Z,10.45
2023-05-15T08:08:10.628Z,10.40
2023-05-15T08:10:38.976Z,10.57
2023-05-15T08:13:07.185Z,10.38
2023-05-15T08:15:35.787Z,10.90
2023-05-15T08:18:09.626Z,10.75
2023-05-15T08:20:38.934Z,11.20
2023-05-15T08:23:09.515Z,9.40
2023-05-15T08:25:38.310Z,10.07
2023-05-15T08:28:07.013Z,9.68
2023-05-15T08:30:36.217Z,8.85
2023-05-15T08:33:04.825Z,8.88
2023-05-15T08:35:33.349Z,9.35
2023-05-15T08:38:02.043Z,8.48
2023-05-15T08:40:39.098Z,7.80
2023-05-15T08:43:15.206Z,7.43
2023-05-15T08:45:45.702Z,7.97
2023-05-15T08:48:17.479Z,8.18
2023-05-15T08:53:20.113Z,7.57
2023-05-15T08:55:50.239Z,7.70
2023-05-15T08:58:19.874Z,7.60
2023-05-15T09:00:48.977Z,7.82
2023-05-15T09:03:19.848Z,7.55
2023-05-15T09:05:52.252Z,7.50
2023-05-15T09:08:23.653Z,7.22
2023-05-15T09:10:54.628Z,7.68
2023-05-15T09:13:23.254Z,7.63
2023-05-15T09:15:52.494Z,7.90
2023-05-15T09:18:21.453Z,8.02
2023-05-15T09:20:49.660Z,7.32
2023-05-15T09:23:26.571Z,7.88
2023-05-15T09:25:57.057Z,7.55
2023-05-15T09:28:28.457Z,7.80
2023-05-15T09:31:01.668Z,7.40
2023-05-15T09:33:34.096Z,7.38
2023-05-15T09:36:03.168Z,7.60
2023-05-15T09:38:34.006Z,7.38
2023-05-15T09:41:06.339Z,6.40
2023-05-15T09:43:39.901Z,5.72
2023-05-15T09:46:12.350Z,6.32
2023-05-15T09:48:40.962Z,5.97
2023-05-15T09:51:16.845Z,5.80
2023-05-15T09:53:51.591Z,5.85
2023-05-15T09:56:22.047Z,5.63
2023-05-15T09:58:54.674Z,5.30
2023-05-15T10:01:23.580Z,5.22
2023-05-15T10:04:01.540Z,4.70
2023-05-15T10:06:37.485Z,4.72
2023-05-15T10:09:07.261Z,4.63
2023-05-15T10:11:38.583Z,4.40
2023-05-15T10:14:09.327Z,4.40
2023-05-15T10:16:39.080Z,5.30
2023-05-15T10:19:10.370Z,4.93
2023-05-15T10:21:41.292Z,5.47
2023-05-15T10:24:10.302Z,4.63
2023-05-15T10:26:41.749Z,5.00
2023-05-15T10:29:13.151Z,4.50
2023-05-15T10:31:43.363Z,5.03
2023-05-15T10:34:13.964Z,4.38
2023-05-15T10:36:43.489Z,4.40
2023-05-15T10:39:13.948Z,4.35
2023-05-15T10:41:47.799Z,4.50
2023-05-15T10:44:18.044Z,3.95
2023-05-15T10:46:49.031Z,4.20
2023-05-15T10:49:20.656Z,3.90
2023-05-15T10:51:49.166Z,3.65
2023-05-15T10:54:20.458Z,4.00
2023-05-15T10:56:52.240Z,4.03
2023-05-15T10:59:24.806Z,3.90
2023-05-15T11:01:54.362Z,3.63
2023-05-15T11:04:26.484Z,3.88
2023-05-15T11:07:14.167Z,3.72
2023-05-15T11:09:42.480Z,4.30
2023-05-15T11:12:14.388Z,3.90
2023-05-15T11:14:44.434Z,3.70
2023-05-15T11:17:15.331Z,4.20
2023-05-15T11:19:58.836Z,4.10
2023-05-15T11:22:30.568Z,3.95
2023-05-15T11:25:02.126Z,3.85
2023-05-15T11:27:33.420Z,3.63
2023-05-15T11:30:22.864Z,3.70
2023-05-15T11:32:53.603Z,3.80
2023-05-15T11:35:28.108Z,3.95
2023-05-15T11:37:58.617Z,3.83
2023-05-15T11:40:28.762Z,3.85
2023-05-15T11:43:06.669Z,3.80
2023-05-15T11:45:36.675Z,3.55
2023-05-15T11:48:07.430Z,4.22
2023-05-15T11:50:40.399Z,3.70
2023-05-15T11:53:11.244Z,3.40
2023-05-15T11:55:42.260Z,3.78
2023-05-15T11:58:16.572Z,3.70
2023-05-15T12:00:46.725Z,3.90
2023-05-15T12:03:20.501Z,3.45
2023-05-15T12:05:58.061Z,3.40
2023-05-15T12:08:32.039Z,3.38
2023-05-15T12:11:01.416Z,3.40
2023-05-15T12:13:32.926Z,3.50
2023-05-15T12:16:03.395Z,3.00
2023-05-15T12:18:32.483Z,2.90
2023-05-15T12:21:01.342Z,2.67
2023-05-15T12:23:30.807Z,2.80
2023-05-15T12:26:02.905Z,2.70
2023-05-15T12:28:36.229Z,2.75
2023-05-15T12:31:05.387Z,2.63
2023-05-15T12:33:33.564Z,2.60
2023-05-15T12:36:04.606Z,2.85
2023-05-15T12:38:35.188Z,2.92
2023-05-15T12:41:04.088Z,3.08
2023-05-15T12:43:34.634Z,2.78
2023-05-15T12:46:03.238Z,2.80
2023-05-15T12:48:32.632Z,3.10
2023-05-15T12:51:07.450Z,3.28
2023-05-15T12:53:36.530Z,2.72
2023-05-15T12:56:05.530Z,2.83
2023-05-15T12:58:35.168Z,3.00
2023-05-15T13:01:04.880Z,2.88
2023-05-15T13:03:33.717Z,3.03
2023-05-15T13:06:03.483Z,2.80
2023-05-15T13:08:32.029Z,3.15
2023-05-15T13:11:01.169Z,3.20
2023-05-15T13:13:51.887Z,3.00
2023-05-15T13:16:25.429Z,2.88
2023-05-15T13:18:54.152Z,3.08
2023-05-15T13:21:22.479Z,2.80
2023-05-15T13:23:52.159Z,3.10
2023-05-15T13:26:20.842Z,3.00
2023-05-15T13:28:49.241Z,3.22
2023-05-15T13:31:19.148Z,3.10
2023-05-15T13:33:48.197Z,3.60
2023-05-15T13:36:16.490Z,3.10
2023-05-15T13:38:44.772Z,3.25
2023-05-15T13:41:13.782Z,3.30
2023-05-15T13:43:41.921Z,3.08
2023-05-15T13:46:10.147Z,3.05
2023-05-15T13:48:40.076Z,3.00
2023-05-15T13:51:08.855Z,3.00
2023-05-15T13:53:37.293Z,2.50
2023-05-15T13:56:06.493Z,2.60
2023-05-15T13:58:36.170Z,2.75
2023-05-15T14:01:07.912Z,2.60
2023-05-15T14:03:37.780Z,2.50
2023-05-15T14:06:09.582Z,2.50
2023-05-15T14:08:37.753Z,2.30
2023-05-15T14:11:06.380Z,2.47
2023-05-15T14:13:37.593Z,2.67
2023-05-15T14:16:07.681Z,2.70
2023-05-15T14:18:37.018Z,2.60
2023-05-15T14:21:05.544Z,2.40
2023-05-15T14:23:36.354Z,2.80
2023-05-15T14:26:05.612Z,2.70
2023-05-15T14:28:35.168Z,2.55
2023-05-15T14:31:04.055Z,2.53
2023-05-15T14:33:32.863Z,2.30
2023-05-15T14:36:01.596Z,2.60
2023-05-15T14:38:29.763Z,2.40
2023-05-15T14:40:59.877Z,2.50
2023-05-15T14:43:29.991Z,2.38
2023-05-15T14:45:58.304Z,2.33
2023-05-15T14:48:27.444Z,2.40
2023-05-15T14:50:57.788Z,2.30
2023-05-15T14:53:26.713Z,2.60
2023-05-15T14:55:58.480Z,2.60
2023-05-15T15:00:56.298Z,2.55
2023-05-15T15:03:27.702Z,2.80
2023-05-15T15:05:57.407Z,2.53
2023-05-15T15:08:27.547Z,2.63
2023-05-15T15:10:55.876Z,2.70
2023-05-15T15:13:25.868Z,3.25
2023-05-15T15:15:55.750Z,3.33
2023-05-15T15:18:23.970Z,3.30
2023-05-15T15:20:53.268Z,3.30
2023-05-15T15:23:21.942Z,2.90
2023-05-15T15:25:50.538Z,2.80
2023-05-15T15:28:19.661Z,2.78
2023-05-15T15:30:47.899Z,2.78
2023-05-15T15:33:17.813Z,2.92
2023-05-15T15:35:47.938Z,3.10
2023-05-15T15:38:18.016Z,3.17
2023-05-15T15:40:48.065Z,3.97
2023-05-15T15:43:17.611Z,3.42
2023-05-15T15:45:46.281Z,3.65
2023-05-15T15:48:15.518Z,3.35
2023-05-15T15:50:45.303Z,3.60
2023-05-15T15:53:13.781Z,3.65
2023-05-15T15:55:44.189Z,3.35
2023-05-15T15:58:13.739Z,3.50
2023-05-15T16:00:42.292Z,3.28
2023-05-15T16:03:11.239Z,3.50
2023-05-15T16:05:39.861Z,3.65
2023-05-15T16:08:10.782Z,3.30
2023-05-15T16:10:39.521Z,3.40
2023-05-15T16:13:10.381Z,3.40
2023-05-15T16:15:38.579Z,3.63
2023-05-15T16:18:07.072Z,3.13
2023-05-15T16:20:35.584Z,3.40
2023-05-15T16:23:03.983Z,3.42
2023-05-15T16:25:34.636Z,3.25
2023-05-15T16:28:02.968Z,3.08
2023-05-15T16:30:44.816Z,3.17
2023-05-15T16:33:17.565Z,3.10
2023-05-15T16:35:46.261Z,3.42
2023-05-15T16:38:14.778Z,4.00
2023-05-15T16:40:45.138Z,4.10
2023-05-15T16:43:15.743Z,4.10
2023-05-15T16:45:44.738Z,3.90
2023-05-15T16:48:13.017Z,3.95
2023-05-15T16:50:41.762Z,3.85
2023-05-15T16:53:10.207Z,3.55
2023-05-15T16:55:39.584Z,3.63
2023-05-15T16:58:09.548Z,3.70
2023-05-15T17:00:38.156Z,3.78
2023-05-15T17:03:06.995Z,3.45
2023-05-15T17:05:35.458Z,3.90
2023-05-15T17:08:03.898Z,3.85
2023-05-15T17:10:33.215Z,3.90
2023-05-15T17:13:01.668Z,4.60
2023-05-15T17:15:34.303Z,4.38
2023-05-15T17:18:02.501Z,4.63
2023-05-15T17:20:31.217Z,4.40
2023-05-15T17:23:01.175Z,4.40
2023-05-15T17:25:32.041Z,4.13
2023-05-15T17:28:00.381Z,4.07
2023-05-15T17:30:29.029Z,4.50
2023-05-15T17:33:01.027Z,5.30
2023-05-15T17:35:32.786Z,5.05
2023-05-15T17:38:01.568Z,4.15
2023-05-15T17:40:30.621Z,3.83
2023-05-15T17:42:59.162Z,4.13
2023-05-15T17:45:30.099Z,3.80
2023-05-15T17:48:03.676Z,3.35
2023-05-15T17:50:35.003Z,4.40
2023-05-15T17:53:04.306Z,3.90
2023-05-15T17:55:33.213Z,4.10
2023-05-15T17:58:01.607Z,4.00
2023-05-15T18:00:30.197Z,3.35
2023-05-15T18:03:01.534Z,3.50
2023-05-15T18:05:30.293Z,3.25
2023-05-15T18:08:00.048Z,3.70
2023-05-15T18:10:28.975Z,3.90
2023-05-15T18:12:57.635Z,3.75
2023-05-15T18:15:26.691Z,3.83
2023-05-15T18:17:55.402Z,3.67
2023-05-15T18:20:30.588Z,4.10
2023-05-15T18:22:59.424Z,3.97
2023-05-15T18:25:29.180Z,4.30
2023-05-15T18:27:58.615Z,4.15
2023-05-15T18:30:27.478Z,3.80
2023-05-15T18:32:56.772Z,5.32
2023-05-15T18:35:25.652Z,5.25
2023-05-15T18:37:56.348Z,4.90
2023-05-15T18:40:26.505Z,4.82
2023-05-15T18:42:56.913Z,5.22
2023-05-15T18:45:26.763Z,5.50
2023-05-15T18:47:56.226Z,5.95
2023-05-15T18:50:25.535Z,6.00
2023-05-15T18:52:56.040Z,5.88
2023-05-15T18:55:27.019Z,6.60
2023-05-15T18:57:56.238Z,6.60
2023-05-15T19:00:36.921Z,6.78
2023-05-15T19:05:37.709Z,6.90
2023-05-15T19:08:08.465Z,7.03
2023-05-15T19:10:37.061Z,7.53
2023-05-15T19:13:06.123Z,8.25
2023-05-15T19:15:35.520Z,8.50
2023-05-15T19:18:04.138Z,8.57
2023-05-15T19:20:33.330Z,7.97
2023-05-15T19:23:02.112Z,8.48
2023-05-15T19:25:33.056Z,7.97
2023-05-15T19:28:01.856Z,8.97
2023-05-15T19:30:30.941Z,8.38
2023-05-15T19:32:59.783Z,8.30
2023-05-15T19:35:28.743Z,8.70
2023-05-15T19:37:57.368Z,8.13
2023-05-15T19:40:26.341Z,8.50
2023-05-15T19:42:58.033Z,9.13
2023-05-15T19:45:26.684Z,8.95
2023-05-15T19:47:56.571Z,8.52
2023-05-15T19:50:25.936Z,8.80
2023-05-15T19:52:54.702Z,8.00
2023-05-15T19:55:23.607Z,8.05
2023-05-15T19:57:58.230Z,8.02
2023-05-15T20:00:30.467Z,8.30
2023-05-15T20:03:00.727Z,8.13
2023-05-15T20:05:29.602Z,8.05
2023-05-15T20:07:58.281Z,7.85
2023-05-15T20:10:27.746Z,8.35
2023-05-15T20:12:57.854Z,8.60
2023-05-15T20:15:31.843Z,9.27
2023-05-15T20:18:01.968Z,9.13
2023-05-15T20:20:31.152Z,9.65
2023-05-15T20:23:00.626Z,10.00
2023-05-15T20:25:29.707Z,9.95
2023-05-15T20:28:01.251Z,10.23
2023-05-15T20:30:29.998Z,10.02
2023-05-15T20:32:59.185Z,10.10
2023-05-15T20:35:29.712Z,9.70
2023-05-15T20:37:58.626Z,10.13
2023-05-15T20:40:28.849Z,8.95
2023-05-15T20:42:57.848Z,8.88
2023-05-15T20:45:28.359Z,10.00
2023-05-15T20:47:57.612Z,9.45
2023-05-15T20:50:26.779Z,9.30
2023-05-15T20:52:55.736Z,8.48
2023-05-15T20:55:24.356Z,8.95
2023-05-15T20:57:52.949Z,8.85
2023-05-15T21:00:21.714Z,8.57
2023-05-15T21:02:51.570Z,8.93
2023-05-15T21:05:20.200Z,10.15
2023-05-15T21:07:49.956Z,9.85
2023-05-15T21:10:18.840Z,9.90
2023-05-15T21:12:47.179Z,10.32
2023-05-15T21:15:15.480Z,10.23
2023-05-15T21:17:43.777Z,10.02
2023-05-15T21:20:14.057Z,9.95
2023-05-15T21:22:44.309Z,10.63
2023-05-15T21:25:12.864Z,11.15
2023-05-15T21:27:42.127Z,11.73
2023-05-15T21:30:12.262Z,11.23
2023-05-15T21:32:45.739Z,11.35
2023-05-15T21:35:15.308Z,11.23
2023-05-15T21:37:43.601Z,11.48
2023-05-15T21:40:13.825Z,11.27
2023-05-15T21:42:44.027Z,11.05
2023-05-15T21:45:12.845Z,11.30
2023-05-15T21:47:41.626Z,11.60
2023-05-15T21:50:11.767Z,11.93
2023-05-15T21:52:41.634Z,11.93
2023-05-15T21:55:10.915Z,11.02
2023-05-15T21:57:39.256Z,10.38
2023-05-15T22:00:10.496Z,10.63
2023-05-15T22:02:39.367Z,9.80
2023-05-15T22:05:08.210Z,10.40
2023-05-15T22:07:38.261Z,10.13
2023-05-15T22:10:16.505Z,9.90
2023-05-15T22:12:46.377Z,10.18
2023-05-15T22:15:16.743Z,10.32
2023-05-15T22:17:45.165Z,10.80
2023-05-15T22:20:14.633Z,10.88
2023-05-15T22:22:43.937Z,10.43
2023-05-15T22:25:14.337Z,10.65
2023-05-15T22:27:42.669Z,11.30
2023-05-15T22:30:11.911Z,10.40
2023-05-15T22:32:41.513Z,10.52
2023-05-15T22:35:13.719Z,11.43
2023-05-15T22:37:42.176Z,11.18
2023-05-15T22:40:13.540Z,12.00
2023-05-15T22:42:42.314Z,11.23
2023-05-15T22:45:11.955Z,12.27
2023-05-15T22:47:41.680Z,14.70
2023-05-15T22:50:12.826Z,13.30
2023-05-15T22:52:41.194Z,11.40
2023-05-15T22:55:12.907Z,11.13
2023-05-15T22:57:45.223Z,11.18
2023-05-15T23:00:14.899Z,12.10
2023-05-15T23:02:44.976Z,11.65
2023-05-15T23:05:13.523Z,12.60
2023-05-15T23:07:41.855Z,12.77
2023-05-15T23:10:11.001Z,12.73
2023-05-15T23:12:39.470Z,14.60
2023-05-15T23:15:12.010Z,13.38
2023-05-15T23:17:41.663Z,13.63
2023-05-15T23:20:12.842Z,13.32
2023-05-15T23:22:42.623Z,13.05
2023-05-15T23:25:12.772Z,13.95
2023-05-15T23:27:42.797Z,13.07
2023-05-15T23:30:13.651Z,13.55
2023-05-15T23:32:43.577Z,13.98
2023-05-15T23:35:12.062Z,13.07
2023-05-15T23:37:40.734Z,14.07
2023-05-15T23:40:10.510Z,14.10
2023-05-15T23:42:43.142Z,14.13
2023-05-15T23:45:15.165Z,14.70
2023-05-15T23:47:43.728Z,13.90
2023-05-15T23:50:12.259Z,13.93
2023-05-15T23:52:40.863Z,13.75
2023-05-15T23:55:10.180Z,13.82
2023-05-15T23:57:38.820Z,14.07
